createdAt,value
2018-09-08T00:00:47.149Z,16.70
2018-09-08T00:03:14.535Z,16.70
2018-09-08T00:05:41.982Z,16.70
2018-09-08T00:08:09.392Z,16.60
2018-09-08T00:10:36.852Z,16.60
2018-09-08T00:13:04.267Z,16.50
2018-09-08T00:15:37.237Z,16.50
2018-09-08T00:18:10.445Z,16.40
2018-09-08T00:20:43.128Z,16.30
2018-09-08T00:23:16.045Z,16.20
2018-09-08T00:25:48.993Z,16.10
2018-09-08T00:28:21.804Z,16.10
2018-09-08T00:30:49.211Z,16.00
2018-09-08T00:33:16.608Z,16.00
2018-09-08T00:35:44.152Z,15.90
2018-09-08T00:38:11.548Z,15.80
2018-09-08T00:40:39.033Z,15.80
2018-09-08T00:43:06.405Z,15.70
2018-09-08T00:45:33.799Z,15.70
2018-09-08T00:48:01.212Z,15.60
2018-09-08T00:50:28.656Z,15.60
2018-09-08T00:52:56.200Z,15.50
2018-09-08T00:55:23.615Z,15.50
2018-09-08T00:57:51.051Z,15.50
2018-09-08T01:00:18.452Z,15.40
2018-09-08T01:02:45.960Z,15.40
2018-09-08T01:05:13.363Z,15.30
2018-09-08T01:07:40.753Z,15.30
2018-09-08T01:10:08.191Z,15.20
2018-09-08T01:12:35.596Z,15.20
2018-09-08T01:15:03.017Z,15.00
2018-09-08T01:17:30.493Z,15.00
2018-09-08T01:19:57.900Z,14.90
2018-09-08T01:22:26.159Z,14.80
2018-09-08T01:24:53.599Z,14.80
2018-09-08T01:27:21.018Z,14.60
2018-09-08T01:29:48.503Z,14.50
2018-09-08T01:32:15.900Z,14.50
2018-09-08T01:34:43.355Z,14.40
2018-09-08T01:37:10.759Z,14.30
2018-09-08T01:39:38.159Z,14.20
2018-09-08T01:42:05.556Z,14.10
2018-09-08T01:44:32.989Z,14.00
2018-09-08T01:47:00.399Z,14.00
2018-09-08T01:49:27.834Z,13.90
2018-09-08T01:51:55.350Z,13.90
2018-09-08T01:54:22.806Z,13.90
2018-09-08T01:56:50.222Z,13.90
2018-09-08T01:59:17.651Z,13.80
2018-09-08T02:01:45.107Z,13.80
2018-09-08T02:04:12.552Z,13.70
2018-09-08T02:06:41.222Z,13.60
2018-09-08T02:09:08.927Z,13.60
2018-09-08T02:11:36.370Z,13.50
2018-09-08T02:14:03.809Z,13.50
2018-09-08T02:16:31.376Z,13.50
2018-09-08T02:18:58.873Z,13.50
2018-09-08T02:21:26.299Z,13.50
2018-09-08T02:23:53.889Z,13.50
2018-09-08T02:26:21.328Z,13.50
2018-09-08T02:28:49.015Z,13.40
2018-09-08T02:31:16.519Z,13.30
2018-09-08T02:33:43.964Z,13.20
2018-09-08T02:36:11.447Z,13.20
2018-09-08T02:38:38.867Z,13.10
2018-09-08T02:41:06.459Z,13.10
2018-09-08T02:43:33.862Z,13.10
2018-09-08T02:46:01.291Z,13.00
2018-09-08T02:48:28.772Z,12.90
2018-09-08T02:50:55.715Z,13.00
2018-09-08T02:53:22.688Z,12.90
2018-09-08T02:55:49.637Z,12.80
2018-09-08T02:58:16.576Z,12.80
2018-09-08T03:00:43.578Z,12.80
2018-09-08T03:03:10.523Z,12.70
2018-09-08T03:05:37.458Z,12.70
2018-09-08T03:08:04.480Z,12.70
2018-09-08T03:10:31.412Z,12.60
2018-09-08T03:12:58.367Z,12.60
2018-09-08T03:15:25.323Z,12.60
2018-09-08T03:17:52.257Z,12.60
2018-09-08T03:20:19.229Z,12.60
2018-09-08T03:22:46.160Z,12.40
2018-09-08T03:25:13.096Z,12.40
2018-09-08T03:27:40.059Z,12.40
2018-09-08T03:30:07.017Z,12.40
2018-09-08T03:32:33.943Z,12.40
2018-09-08T03:35:00.931Z,12.30
2018-09-08T03:37:27.876Z,12.10
2018-09-08T03:39:54.815Z,12.10
2018-09-08T03:42:21.875Z,12.10
2018-09-08T03:44:48.807Z,12.00
2018-09-08T03:47:15.757Z,12.00
2018-09-08T03:49:42.695Z,12.00
2018-09-08T03:52:09.646Z,12.00
2018-09-08T03:54:36.575Z,12.00
2018-09-08T03:57:03.530Z,12.00
2018-09-08T03:59:30.477Z,12.00
2018-09-08T04:01:57.440Z,11.90
2018-09-08T04:04:24.860Z,11.90
2018-09-08T04:06:52.280Z,11.90
2018-09-08T04:09:19.717Z,11.90
2018-09-08T04:11:47.164Z,11.90
2018-09-08T04:14:14.699Z,11.90
2018-09-08T04:16:42.119Z,11.80
2018-09-08T04:19:09.555Z,11.90
2018-09-08T04:21:37.034Z,11.80
2018-09-08T04:24:04.476Z,11.80
2018-09-08T04:26:31.875Z,11.70
2018-09-08T04:28:59.311Z,11.70
2018-09-08T04:31:26.742Z,11.60
2018-09-08T04:33:54.196Z,11.50
2018-09-08T04:36:21.611Z,11.50
2018-09-08T04:38:49.176Z,11.50
2018-09-08T04:41:16.613Z,11.40
2018-09-08T04:43:44.045Z,11.30
2018-09-08T04:46:11.455Z,11.30
2018-09-08T04:48:38.877Z,11.20
2018-09-08T04:51:06.499Z,11.10
2018-09-08T04:53:33.992Z,11.10
2018-09-08T04:56:02.464Z,11.10
2018-09-08T04:58:29.899Z,11.10
2018-09-08T05:00:57.312Z,11.10
2018-09-08T05:03:24.748Z,11.10
2018-09-08T05:05:52.227Z,11.00
2018-09-08T05:08:19.675Z,11.10
2018-09-08T05:10:47.079Z,11.00
2018-09-08T05:13:14.526Z,10.90
2018-09-08T05:15:41.943Z,10.90
2018-09-08T05:18:09.355Z,10.90
2018-09-08T05:20:36.797Z,10.90
2018-09-08T05:23:04.334Z,10.90
2018-09-08T05:25:31.724Z,10.90
2018-09-08T05:27:59.231Z,11.00
2018-09-08T05:30:26.656Z,11.00
2018-09-08T05:32:54.075Z,10.90
2018-09-08T05:35:21.500Z,10.80
2018-09-08T05:37:48.931Z,10.80
2018-09-08T05:40:16.387Z,10.90
2018-09-08T05:42:43.827Z,10.80
2018-09-08T05:45:11.259Z,10.90
2018-09-08T05:47:38.791Z,10.90
2018-09-08T05:50:06.267Z,10.90
2018-09-08T05:52:33.688Z,11.00
2018-09-08T05:55:01.132Z,11.10
2018-09-08T05:57:35.158Z,11.10
2018-09-08T06:00:02.614Z,11.20
2018-09-08T06:02:30.063Z,11.30
2018-09-08T06:04:57.522Z,11.30
2018-09-08T06:07:25.119Z,11.40
2018-09-08T06:09:52.826Z,11.50
2018-09-08T06:12:20.331Z,11.60
2018-09-08T06:14:47.764Z,11.70
2018-09-08T06:17:15.202Z,11.80
2018-09-08T06:19:42.620Z,11.80
2018-09-08T06:22:10.009Z,11.90
2018-09-08T06:24:37.440Z,12.00
2018-09-08T06:27:05.105Z,12.10
2018-09-08T06:29:32.519Z,12.10
2018-09-08T06:31:59.934Z,12.10
2018-09-08T06:34:27.368Z,12.30
2018-09-08T06:36:54.839Z,12.50
2018-09-08T06:39:22.263Z,12.60
2018-09-08T06:41:49.679Z,12.70
2018-09-08T06:44:17.163Z,12.90
2018-09-08T06:46:44.599Z,13.00
2018-09-08T06:49:12.056Z,13.20
2018-09-08T06:51:39.487Z,13.40
2018-09-08T06:54:07.118Z,13.50
2018-09-08T06:56:34.519Z,13.70
2018-09-08T06:59:01.983Z,13.70
2018-09-08T07:01:29.492Z,13.80
2018-09-08T07:03:56.920Z,14.00
2018-09-08T07:06:24.335Z,14.20
2018-09-08T07:08:51.909Z,14.30
2018-09-08T07:11:19.404Z,14.40
2018-09-08T07:13:46.871Z,14.60
2018-09-08T07:16:14.499Z,15.00
2018-09-08T07:18:41.911Z,15.70
2018-09-08T07:21:09.448Z,16.30
2018-09-08T07:23:36.867Z,17.10
2018-09-08T07:26:04.531Z,17.70
2018-09-08T07:28:32.806Z,18.00
2018-09-08T07:31:00.370Z,18.40
2018-09-08T07:33:28.124Z,18.60
2018-09-08T07:35:55.643Z,18.80
2018-09-08T07:38:23.111Z,19.20
2018-09-08T07:40:50.883Z,19.60
2018-09-08T07:43:18.295Z,19.90
2018-09-08T07:45:45.721Z,20.60
2018-09-08T07:48:13.148Z,21.00
2018-09-08T07:50:40.562Z,21.50
2018-09-08T07:53:08.134Z,21.70
2018-09-08T07:55:35.511Z,22.00
2018-09-08T07:58:02.987Z,22.30
2018-09-08T08:00:30.406Z,22.50
2018-09-08T08:02:57.844Z,22.60
2018-09-08T08:05:25.290Z,22.50
2018-09-08T08:07:52.728Z,22.50
2018-09-08T08:10:20.209Z,22.60
2018-09-08T08:12:47.624Z,22.70
2018-09-08T08:15:15.072Z,22.70
2018-09-08T08:17:42.603Z,22.90
2018-09-08T08:20:10.034Z,22.90
2018-09-08T08:22:37.468Z,22.70
2018-09-08T08:25:04.891Z,22.80
2018-09-08T08:27:32.344Z,23.00
2018-09-08T08:29:59.770Z,23.00
2018-09-08T08:32:27.203Z,23.30
2018-09-08T08:34:54.634Z,23.50
2018-09-08T08:37:22.033Z,23.60
2018-09-08T08:39:49.467Z,23.80
2018-09-08T08:42:16.907Z,24.00
2018-09-08T08:44:44.351Z,23.80
2018-09-08T08:47:11.780Z,23.90
2018-09-08T08:49:39.194Z,23.90
2018-09-08T08:52:12.367Z,23.90
2018-09-08T08:54:41.755Z,23.90
2018-09-08T08:57:09.178Z,24.10
2018-09-08T08:59:36.591Z,24.30
2018-09-08T09:02:04.235Z,24.50
2018-09-08T09:04:31.654Z,24.60
2018-09-08T09:06:59.133Z,24.50
2018-09-08T09:09:26.548Z,24.80
2018-09-08T09:11:54.339Z,24.80
2018-09-08T09:14:21.531Z,25.10
2018-09-08T09:16:48.927Z,25.20
2018-09-08T09:19:31.862Z,24.90
2018-09-08T09:22:05.455Z,25.10
2018-09-08T09:24:39.090Z,25.50
2018-09-08T09:27:06.115Z,25.70
2018-09-08T09:29:33.549Z,25.90
2018-09-08T09:32:01.053Z,26.00
2018-09-08T09:34:28.475Z,26.10
2018-09-08T09:36:55.886Z,25.80
2018-09-08T09:39:23.312Z,25.60
2018-09-08T09:41:50.731Z,25.80
2018-09-08T09:44:18.155Z,25.60
2018-09-08T09:46:45.559Z,25.70
2018-09-08T09:49:13.046Z,26.00
2018-09-08T09:51:40.467Z,25.60
2018-09-08T09:54:07.888Z,25.80
2018-09-08T09:56:35.383Z,25.90
2018-09-08T09:59:02.795Z,25.60
2018-09-08T10:01:35.719Z,25.80
2018-09-08T10:04:03.232Z,26.00
2018-09-08T10:06:30.727Z,26.30
2018-09-08T10:08:58.138Z,26.60
2018-09-08T10:11:25.574Z,26.80
2018-09-08T10:13:53.187Z,27.10
2018-09-08T10:16:20.619Z,27.20
2018-09-08T10:18:48.151Z,27.50
2018-09-08T10:21:15.562Z,27.50
2018-09-08T10:24:04.341Z,27.50
2018-09-08T10:26:10.450Z,27.60
2018-09-08T10:28:37.863Z,27.30
2018-09-08T10:31:05.538Z,27.50
2018-09-08T10:33:32.951Z,27.50
2018-09-08T10:36:00.468Z,27.20
2018-09-08T10:38:27.881Z,27.10
2018-09-08T10:40:55.296Z,26.60
2018-09-08T10:43:22.710Z,26.10
2018-09-08T10:45:50.336Z,26.20
2018-09-08T10:48:17.848Z,26.60
2018-09-08T10:50:45.280Z,26.70
2018-09-08T10:53:12.783Z,26.70
2018-09-08T10:55:40.176Z,27.00
2018-09-08T10:58:07.600Z,27.40
2018-09-08T11:00:35.003Z,27.20
2018-09-08T11:03:02.431Z,27.40
2018-09-08T11:05:29.928Z,27.70
2018-09-08T11:07:57.363Z,27.40
2018-09-08T11:10:24.891Z,27.40
2018-09-08T11:12:52.307Z,27.30
2018-09-08T11:15:19.711Z,27.30
2018-09-08T11:17:47.145Z,27.20
2018-09-08T11:20:14.554Z,27.10
2018-09-08T11:22:42.116Z,27.20
2018-09-08T11:25:09.499Z,27.20
2018-09-08T11:27:36.917Z,27.30
2018-09-08T11:30:04.657Z,27.10
2018-09-08T11:32:32.080Z,27.10
2018-09-08T11:34:59.577Z,26.50
2018-09-08T11:37:27.018Z,26.20
2018-09-08T11:39:54.439Z,26.00
2018-09-08T11:42:21.979Z,25.70
2018-09-08T11:44:49.513Z,25.60
2018-09-08T11:47:16.950Z,25.40
2018-09-08T11:49:44.417Z,25.60
2018-09-08T11:52:11.812Z,25.60
2018-09-08T11:54:39.289Z,25.40
2018-09-08T11:57:06.716Z,25.30
2018-09-08T11:59:34.303Z,25.20
2018-09-08T12:02:01.717Z,24.80
2018-09-08T12:04:29.115Z,24.60
2018-09-08T12:06:56.530Z,24.70
2018-09-08T12:09:23.964Z,24.60
2018-09-08T12:11:51.380Z,24.60
2018-09-08T12:14:18.797Z,24.80
2018-09-08T12:16:46.295Z,24.70
2018-09-08T12:19:13.826Z,24.50
2018-09-08T12:21:41.139Z,24.00
2018-09-08T12:24:08.583Z,24.10
2018-09-08T12:26:36.003Z,24.00
2018-09-08T12:29:03.477Z,23.90
2018-09-08T12:31:30.913Z,23.80
2018-09-08T12:33:58.343Z,23.70
2018-09-08T12:36:25.771Z,23.40
2018-09-08T12:38:53.239Z,23.30
2018-09-08T12:41:20.919Z,23.30
2018-09-08T12:43:48.675Z,23.40
2018-09-08T12:46:16.253Z,23.50
2018-09-08T12:48:43.699Z,23.50
2018-09-08T12:51:11.152Z,23.20
2018-09-08T12:53:38.564Z,23.30
2018-09-08T12:56:06.083Z,23.30
2018-09-08T12:58:33.638Z,23.30
2018-09-08T13:01:01.092Z,23.30
2018-09-08T13:03:28.529Z,23.40
2018-09-08T13:05:55.943Z,23.40
2018-09-08T13:08:23.464Z,23.30
2018-09-08T13:10:50.871Z,23.20
2018-09-08T13:13:18.288Z,23.30
2018-09-08T13:15:45.759Z,22.90
2018-09-08T13:18:13.209Z,23.00
2018-09-08T13:20:40.640Z,22.90
2018-09-08T13:23:08.150Z,23.00
2018-09-08T13:25:35.676Z,22.90
2018-09-08T13:28:03.243Z,22.90
2018-09-08T13:30:30.695Z,22.90
2018-09-08T13:32:58.113Z,22.90
2018-09-08T13:35:25.675Z,22.90
2018-09-08T13:37:53.104Z,22.80
2018-09-08T13:40:20.631Z,22.80
2018-09-08T13:42:48.043Z,22.90
2018-09-08T13:45:15.664Z,22.80
2018-09-08T13:47:43.135Z,22.80
2018-09-08T13:50:10.595Z,22.80
2018-09-08T13:52:38.076Z,22.70
2018-09-08T13:55:05.512Z,22.70
2018-09-08T13:57:32.968Z,22.70
2018-09-08T14:00:00.379Z,22.70
2018-09-08T14:02:28.267Z,22.70
2018-09-08T14:04:55.687Z,22.50
2018-09-08T14:07:23.218Z,22.50
2018-09-08T14:09:50.656Z,22.40
2018-09-08T14:12:18.085Z,22.50
2018-09-08T14:14:45.559Z,22.50
2018-09-08T14:17:13.007Z,22.60
2018-09-08T14:19:40.413Z,22.70
2018-09-08T14:22:07.929Z,22.80
2018-09-08T14:24:35.527Z,22.80
2018-09-08T14:27:02.955Z,22.70
2018-09-08T14:29:30.404Z,22.70
2018-09-08T14:31:57.816Z,22.70
2018-09-08T14:34:25.242Z,22.60
2018-09-08T14:36:52.699Z,22.60
2018-09-08T14:39:20.131Z,22.70
2018-09-08T14:41:47.547Z,22.70
2018-09-08T14:44:14.996Z,22.60
2018-09-08T14:46:42.410Z,22.60
2018-09-08T14:49:09.833Z,22.70
2018-09-08T14:51:37.240Z,22.70
2018-09-08T14:54:07.239Z,22.70
2018-09-08T14:56:34.732Z,22.80
2018-09-08T14:59:02.163Z,22.80
2018-09-08T15:01:29.583Z,22.80
2018-09-08T15:03:56.996Z,22.80
2018-09-08T15:06:24.435Z,22.80
2018-09-08T15:08:51.859Z,22.90
2018-09-08T15:11:19.451Z,22.90
2018-09-08T15:13:46.882Z,22.90
2018-09-08T15:16:14.375Z,22.90
2018-09-08T15:18:41.787Z,22.90
2018-09-08T15:21:09.296Z,22.90
2018-09-08T15:23:36.815Z,22.90
2018-09-08T15:26:04.240Z,22.90
2018-09-08T15:28:31.995Z,22.90
2018-09-08T15:30:59.416Z,22.90
2018-09-08T15:33:26.828Z,22.90
2018-09-08T15:35:54.253Z,22.80
2018-09-08T15:38:21.668Z,22.80
2018-09-08T15:40:49.099Z,22.90
2018-09-08T15:43:16.556Z,22.80
2018-09-08T15:45:44.059Z,22.90
2018-09-08T15:48:11.489Z,23.00
2018-09-08T15:50:39.297Z,23.10
2018-09-08T15:53:08.387Z,23.10
2018-09-08T15:55:35.835Z,23.10
2018-09-08T15:58:03.239Z,23.00
2018-09-08T16:00:30.735Z,23.00
2018-09-08T16:02:58.175Z,23.10
2018-09-08T16:05:25.823Z,22.90
2018-09-08T16:07:53.298Z,22.90
2018-09-08T16:10:20.731Z,23.00
2018-09-08T16:12:48.290Z,22.90
2018-09-08T16:15:15.720Z,23.00
2018-09-08T16:17:43.159Z,23.00
2018-09-08T16:20:10.650Z,22.80
2018-09-08T16:22:38.116Z,22.90
2018-09-08T16:25:05.694Z,22.80
2018-09-08T16:27:33.135Z,22.80
2018-09-08T16:30:00.638Z,22.80
2018-09-08T16:32:28.072Z,22.90
2018-09-08T16:34:55.485Z,22.90
2018-09-08T16:37:23.024Z,22.90
2018-09-08T16:39:50.631Z,22.90
2018-09-08T16:42:18.052Z,22.90
2018-09-08T16:44:45.482Z,22.70
2018-09-08T16:47:12.977Z,22.80
2018-09-08T16:49:40.397Z,22.90
2018-09-08T16:52:07.913Z,22.90
2018-09-08T16:54:35.382Z,22.80
2018-09-08T16:57:03.648Z,22.70
2018-09-08T16:59:31.063Z,22.70
2018-09-08T17:01:58.553Z,22.70
2018-09-08T17:04:25.991Z,22.70
2018-09-08T17:06:53.606Z,22.70
2018-09-08T17:09:20.936Z,22.70
2018-09-08T17:11:48.442Z,22.70
2018-09-08T17:14:15.868Z,22.70
2018-09-08T17:16:43.307Z,22.50
2018-09-08T17:19:10.846Z,22.50
2018-09-08T17:21:38.316Z,22.40
2018-09-08T17:24:05.731Z,22.40
2018-09-08T17:26:33.161Z,22.40
2018-09-08T17:29:00.685Z,22.30
2018-09-08T17:31:28.051Z,22.30
2018-09-08T17:33:55.486Z,22.20
2018-09-08T17:36:23.168Z,22.20
2018-09-08T17:38:50.590Z,22.10
2018-09-08T17:41:18.021Z,22.10
2018-09-08T17:43:45.426Z,22.10
2018-09-08T17:46:12.899Z,22.00
2018-09-08T17:48:40.346Z,22.00
2018-09-08T17:51:07.787Z,22.00
2018-09-08T17:53:35.251Z,22.00
2018-09-08T17:56:02.679Z,21.90
2018-09-08T17:58:30.106Z,21.90
2018-09-08T18:00:57.546Z,21.80
2018-09-08T18:03:24.956Z,21.80
2018-09-08T18:05:52.517Z,21.70
2018-09-08T18:08:24.309Z,21.70
2018-09-08T18:10:51.750Z,21.70
2018-09-08T18:13:20.213Z,21.60
2018-09-08T18:15:47.772Z,21.60
2018-09-08T18:18:15.246Z,21.50
2018-09-08T18:20:42.687Z,21.50
2018-09-08T18:23:10.209Z,21.40
2018-09-08T18:25:37.612Z,21.30
2018-09-08T18:28:05.043Z,21.30
2018-09-08T18:30:32.475Z,21.20
2018-09-08T18:32:59.899Z,21.20
2018-09-08T18:35:27.403Z,21.20
2018-09-08T18:37:54.867Z,21.10
2018-09-08T18:40:22.366Z,21.10
2018-09-08T18:42:49.775Z,21.10
2018-09-08T18:45:17.194Z,21.00
2018-09-08T18:47:44.613Z,21.00
2018-09-08T18:50:12.031Z,21.00
2018-09-08T18:52:39.499Z,20.90
2018-09-08T18:55:06.916Z,20.90
2018-09-08T18:57:34.463Z,20.90
2018-09-08T19:00:01.878Z,20.90
2018-09-08T19:02:29.295Z,20.80
2018-09-08T19:04:56.721Z,20.80
2018-09-08T19:07:24.142Z,20.70
2018-09-08T19:09:57.260Z,20.70
2018-09-08T19:12:24.751Z,20.70
2018-09-08T19:14:57.739Z,20.60
2018-09-08T19:17:25.170Z,20.60
2018-09-08T19:19:57.010Z,20.40
2018-09-08T19:22:24.395Z,20.40
2018-09-08T19:24:51.812Z,20.40
2018-09-08T19:27:19.407Z,20.40
2018-09-08T19:29:48.251Z,20.40
2018-09-08T19:32:16.128Z,20.40
2018-09-08T19:34:44.807Z,20.30
2018-09-08T19:37:12.259Z,20.30
2018-09-08T19:39:39.700Z,20.20
2018-09-08T19:42:07.180Z,20.20
2018-09-08T19:44:34.587Z,20.10
2018-09-08T19:47:07.423Z,20.10
2018-09-08T19:49:35.060Z,20.00
2018-09-08T19:52:13.964Z,20.00
2018-09-08T19:54:41.376Z,19.90
2018-09-08T19:57:14.335Z,19.90
2018-09-08T19:59:41.768Z,19.80
2018-09-08T20:02:09.303Z,19.80
2018-09-08T20:04:36.698Z,19.60
2018-09-08T20:07:04.477Z,19.60
2018-09-08T20:09:32.026Z,19.50
2018-09-08T20:11:59.442Z,19.40
2018-09-08T20:14:26.924Z,19.30
2018-09-08T20:16:54.546Z,19.30
2018-09-08T20:19:22.154Z,19.20
2018-09-08T20:21:49.744Z,19.20
2018-09-08T20:24:17.284Z,19.10
2018-09-08T20:26:45.056Z,19.00
2018-09-08T20:29:12.536Z,18.90
2018-09-08T20:31:40.115Z,18.90
2018-09-08T20:34:07.657Z,18.80
2018-09-08T20:36:37.314Z,18.80
2018-09-08T20:39:05.821Z,18.70
2018-09-08T20:41:33.420Z,18.60
2018-09-08T20:44:00.953Z,18.50
2018-09-08T20:46:31.555Z,18.30
2018-09-08T20:48:59.152Z,18.30
2018-09-08T20:51:26.748Z,18.30
2018-09-08T20:53:54.359Z,18.20
2018-09-08T20:56:21.907Z,18.20
2018-09-08T20:58:49.593Z,18.10
2018-09-08T21:01:17.145Z,18.00
2018-09-08T21:03:44.607Z,17.80
2018-09-08T21:06:12.137Z,17.80
2018-09-08T21:08:39.882Z,17.80
2018-09-08T21:11:08.072Z,17.80
2018-09-08T21:13:35.736Z,17.70
2018-09-08T21:16:08.079Z,17.70
2018-09-08T21:18:35.956Z,17.60
2018-09-08T21:21:03.561Z,17.60
2018-09-08T21:23:31.148Z,17.50
2018-09-08T21:25:58.658Z,17.50
2018-09-08T21:28:26.259Z,17.50
2018-09-08T21:30:53.828Z,17.40
2018-09-08T21:33:21.397Z,17.30
2018-09-08T21:35:49.049Z,17.30
2018-09-08T21:38:16.599Z,17.40
2018-09-08T21:40:44.319Z,17.30
2018-09-08T21:43:11.927Z,17.40
2018-09-08T21:45:39.421Z,17.40
2018-09-08T21:48:06.957Z,17.30
2018-09-08T21:50:34.473Z,17.30
2018-09-08T21:53:01.973Z,17.30
2018-09-08T21:55:29.404Z,17.30
2018-09-08T21:57:57.443Z,17.30
2018-09-08T22:00:24.873Z,17.30
2018-09-08T22:02:52.342Z,17.30
2018-09-08T22:05:19.823Z,17.20
2018-09-08T22:07:47.317Z,17.20
2018-09-08T22:10:14.798Z,17.20
2018-09-08T22:12:42.300Z,17.10
2018-09-08T22:15:09.888Z,17.00
2018-09-08T22:17:39.585Z,17.00
2018-09-08T22:20:07.172Z,17.00
2018-09-08T22:22:34.731Z,17.00
2018-09-08T22:25:02.401Z,17.00
2018-09-08T22:27:29.980Z,17.00
2018-09-08T22:29:57.888Z,17.00
2018-09-08T22:32:25.477Z,17.00
2018-09-08T22:34:53.104Z,17.00
2018-09-08T22:37:20.764Z,16.90
2018-09-08T22:39:48.433Z,16.80
2018-09-08T22:42:16.044Z,16.80
2018-09-08T22:44:43.598Z,16.80
2018-09-08T22:47:11.264Z,16.80
2018-09-08T22:49:38.827Z,16.80
2018-09-08T22:52:06.408Z,16.80
2018-09-08T22:54:34.024Z,16.70
2018-09-08T22:57:01.549Z,16.70
2018-09-08T22:59:29.185Z,16.60
2018-09-08T23:01:56.720Z,16.60
2018-09-08T23:04:24.274Z,16.50
2018-09-08T23:06:51.874Z,16.50
2018-09-08T23:09:19.472Z,16.50
2018-09-08T23:11:47.153Z,16.40
2018-09-08T23:14:14.871Z,16.40
2018-09-08T23:16:42.504Z,16.40
2018-09-08T23:19:10.360Z,16.30
2018-09-08T23:21:37.944Z,16.30
2018-09-08T23:24:05.603Z,16.30
2018-09-08T23:26:33.260Z,16.20
2018-09-08T23:29:00.836Z,16.10
2018-09-08T23:31:28.532Z,16.00
2018-09-08T23:33:56.140Z,15.90
2018-09-08T23:36:23.963Z,15.60
2018-09-08T23:38:51.616Z,15.60
2018-09-08T23:41:19.307Z,15.50
2018-09-08T23:43:46.932Z,15.50
2018-09-08T23:46:14.512Z,15.50
2018-09-08T23:48:42.088Z,15.50
2018-09-08T23:51:09.760Z,15.50
2018-09-08T23:53:37.451Z,15.40
2018-09-08T23:56:05.023Z,15.40
2018-09-08T23:58:32.625Z,15.40
